createdAt,value
2022-12-06T00:01:39.299Z,2.10
2022-12-06T00:04:11.640Z,2.10
2022-12-06T00:06:43.743Z,2.10
2022-12-06T00:09:23.316Z,2.10
2022-12-06T00:11:51.017Z,2.10
2022-12-06T00:14:19.720Z,2.10
2022-12-06T00:16:48.220Z,2.10
2022-12-06T00:19:21.669Z,2.10
2022-12-06T00:21:50.173Z,2.10
2022-12-06T00:24:21.983Z,2.10
2022-12-06T00:26:51.259Z,2.10
2022-12-06T00:29:24.153Z,2.00
2022-12-06T00:31:52.655Z,2.10
2022-12-06T00:34:23.324Z,2.10
2022-12-06T00:36:50.864Z,2.10
2022-12-06T00:39:18.615Z,2.10
2022-12-06T00:41:45.740Z,2.00
2022-12-06T00:44:14.093Z,2.00
2022-12-06T00:46:41.704Z,2.00
2022-12-06T00:49:09.880Z,2.00
2022-12-06T00:51:39.564Z,2.10
2022-12-06T00:54:10.084Z,2.00
2022-12-06T00:56:37.794Z,2.00
2022-12-06T00:59:07.580Z,2.10
2022-12-06T01:01:36.464Z,2.00
2022-12-06T01:04:06.312Z,1.90
2022-12-06T01:06:37.592Z,1.90
2022-12-06T01:09:07.733Z,1.90
2022-12-06T01:11:36.560Z,1.90
2022-12-06T01:14:05.792Z,2.00
2022-12-06T01:16:33.592Z,1.90
2022-12-06T01:19:04.524Z,2.00
2022-12-06T01:21:33.906Z,2.00
2022-12-06T01:24:01.977Z,1.90
2022-12-06T01:26:32.446Z,2.00
2022-12-06T01:29:01.567Z,1.90
2022-12-06T01:31:37.308Z,1.90
2022-12-06T01:34:07.321Z,1.90
2022-12-06T01:36:34.209Z,1.90
2022-12-06T01:39:06.546Z,1.80
2022-12-06T01:41:37.756Z,1.80
2022-12-06T01:44:05.746Z,1.80
2022-12-06T01:46:38.494Z,1.80
2022-12-06T01:49:18.892Z,1.80
2022-12-06T01:51:50.767Z,1.80
2022-12-06T01:54:20.630Z,1.80
2022-12-06T01:56:50.168Z,1.80
2022-12-06T01:59:18.138Z,1.70
2022-12-06T02:01:47.226Z,1.70
2022-12-06T02:04:17.676Z,1.70
2022-12-06T02:06:46.200Z,1.70
2022-12-06T02:09:15.351Z,1.70
2022-12-06T02:11:43.676Z,1.60
2022-12-06T02:14:16.402Z,1.50
2022-12-06T02:17:16.596Z,1.50
2022-12-06T02:20:15.142Z,1.50
2022-12-06T02:23:13.860Z,1.50
2022-12-06T02:26:01.264Z,1.40
2022-12-06T02:29:16.067Z,1.40
2022-12-06T02:32:05.604Z,1.30
2022-12-06T02:34:58.427Z,1.20
2022-12-06T02:37:43.509Z,1.20
2022-12-06T02:40:22.634Z,1.20
2022-12-06T02:43:06.539Z,1.20
2022-12-06T02:45:41.979Z,1.10
2022-12-06T02:48:12.714Z,1.10
2022-12-06T02:50:47.704Z,1.00
2022-12-06T02:53:19.279Z,1.00
2022-12-06T02:55:47.847Z,0.90
2022-12-06T02:58:15.473Z,0.90
2022-12-06T03:00:45.606Z,0.90
2022-12-06T03:03:16.452Z,0.80
2022-12-06T03:06:07.100Z,0.80
2022-12-06T03:09:05.163Z,0.80
2022-12-06T03:12:07.343Z,0.70
2022-12-06T03:14:59.339Z,0.70
2022-12-06T03:17:32.260Z,0.70
2022-12-06T03:20:19.291Z,0.60
2022-12-06T03:22:52.900Z,0.60
2022-12-06T03:25:20.055Z,0.50
2022-12-06T03:27:49.326Z,0.50
2022-12-06T03:30:16.691Z,0.50
2022-12-06T03:32:47.745Z,0.50
2022-12-06T03:35:20.463Z,0.50
2022-12-06T03:37:51.820Z,0.40
2022-12-06T03:40:28.950Z,0.40
2022-12-06T03:42:58.539Z,0.40
2022-12-06T03:45:33.441Z,0.40
2022-12-06T03:48:15.588Z,0.40
2022-12-06T03:50:58.477Z,0.30
2022-12-06T03:53:27.972Z,0.30
2022-12-06T03:55:54.848Z,0.20
2022-12-06T03:58:23.992Z,0.20
2022-12-06T04:00:52.693Z,0.20
2022-12-06T04:03:20.445Z,0.20
2022-12-06T04:05:47.359Z,0.20
2022-12-06T04:08:14.299Z,0.20
2022-12-06T04:10:41.902Z,0.20
2022-12-06T04:13:09.505Z,0.20
2022-12-06T04:15:39.483Z,0.20
2022-12-06T04:18:13.450Z,0.10
2022-12-06T04:21:06.802Z,0.10
2022-12-06T04:23:40.397Z,0.20
2022-12-06T04:26:12.273Z,0.00
2022-12-06T04:28:59.312Z,0.00
2022-12-06T04:31:45.984Z,0.00
2022-12-06T04:34:32.296Z,0.00
2022-12-06T04:37:18.155Z,-0.10
2022-12-06T04:39:47.452Z,-0.10
2022-12-06T04:42:33.752Z,-0.10
2022-12-06T04:45:01.683Z,-0.10
2022-12-06T04:47:29.756Z,-0.20
2022-12-06T04:49:59.083Z,-0.20
2022-12-06T04:52:28.186Z,-0.20
2022-12-06T04:54:58.217Z,-0.20
2022-12-06T04:57:26.041Z,-0.20
2022-12-06T04:59:54.431Z,-0.30
2022-12-06T05:02:22.857Z,-0.30
2022-12-06T05:04:51.256Z,-0.40
2022-12-06T05:07:20.191Z,-0.40
2022-12-06T05:09:47.057Z,-0.30
2022-12-06T05:12:14.724Z,-0.30
2022-12-06T05:14:42.309Z,-0.40
2022-12-06T05:17:10.673Z,-0.40
2022-12-06T05:19:38.258Z,-0.50
2022-12-06T05:22:07.310Z,-0.50
2022-12-06T05:24:37.421Z,-0.50
2022-12-06T05:27:04.992Z,-0.50
2022-12-06T05:29:31.934Z,-0.50
2022-12-06T05:31:59.586Z,-0.50
2022-12-06T05:34:27.244Z,-0.60
2022-12-06T05:36:56.285Z,-0.60
2022-12-06T05:39:23.425Z,-0.60
2022-12-06T05:41:51.936Z,-0.60
2022-12-06T05:44:19.493Z,-0.60
2022-12-06T05:46:47.979Z,-0.70
2022-12-06T05:49:16.236Z,-0.60
2022-12-06T05:51:44.376Z,-0.70
2022-12-06T05:54:12.851Z,-0.80
2022-12-06T05:56:41.409Z,-0.80
2022-12-06T05:59:08.287Z,-0.80
2022-12-06T06:01:35.966Z,-0.80
2022-12-06T06:04:04.769Z,-0.80
2022-12-06T06:06:32.369Z,-0.80
2022-12-06T06:09:00.000Z,-0.80
2022-12-06T06:11:27.288Z,-0.90
2022-12-06T06:13:55.584Z,-0.90
2022-12-06T06:16:23.264Z,-0.90
2022-12-06T06:18:50.960Z,-0.80
2022-12-06T06:21:19.276Z,-0.90
2022-12-06T06:23:48.245Z,-0.90
2022-12-06T06:26:16.679Z,-0.90
2022-12-06T06:28:44.354Z,-0.90
2022-12-06T06:31:12.438Z,-1.00
2022-12-06T06:33:40.811Z,-1.00
2022-12-06T06:36:08.724Z,-1.00
2022-12-06T06:38:36.471Z,-1.00
2022-12-06T06:41:05.632Z,-1.00
2022-12-06T06:43:32.885Z,-1.00
2022-12-06T06:46:03.014Z,-1.00
2022-12-06T06:48:35.586Z,-1.00
2022-12-06T06:51:07.396Z,-1.00
2022-12-06T06:53:36.572Z,-1.00
2022-12-06T06:56:05.642Z,-1.00
2022-12-06T06:58:33.893Z,-1.00
2022-12-06T07:01:05.904Z,-1.00
2022-12-06T07:03:33.147Z,-1.00
2022-12-06T07:06:18.969Z,-0.90
2022-12-06T07:08:47.683Z,-0.90
2022-12-06T07:11:15.787Z,-0.90
2022-12-06T07:13:48.156Z,-1.00
2022-12-06T07:16:21.692Z,-1.00
2022-12-06T07:18:50.351Z,-0.90
2022-12-06T07:21:19.571Z,-1.00
2022-12-06T07:23:47.868Z,-1.00
2022-12-06T07:26:19.097Z,-1.10
2022-12-06T07:28:49.043Z,-1.00
2022-12-06T07:31:21.127Z,-1.00
2022-12-06T07:33:53.695Z,-1.00
2022-12-06T07:36:23.226Z,-1.00
2022-12-06T07:38:56.651Z,-1.00
2022-12-06T07:41:46.432Z,-1.00
2022-12-06T07:44:35.841Z,-1.00
2022-12-06T07:47:04.620Z,-1.00
2022-12-06T07:49:33.267Z,-1.00
2022-12-06T07:52:00.928Z,-1.00
2022-12-06T07:54:29.424Z,-1.00
2022-12-06T07:56:56.996Z,-0.90
2022-12-06T07:59:27.167Z,-1.00
2022-12-06T08:01:55.663Z,-1.00
2022-12-06T08:04:24.396Z,-0.90
2022-12-06T08:06:55.185Z,-0.90
2022-12-06T08:09:24.508Z,-0.90
2022-12-06T08:11:52.786Z,-0.80
2022-12-06T08:14:23.316Z,-0.90
2022-12-06T08:16:52.141Z,-0.90
2022-12-06T08:19:19.806Z,-0.80
2022-12-06T08:21:48.440Z,-0.80
2022-12-06T08:24:16.161Z,-0.80
2022-12-06T08:26:43.016Z,-0.80
2022-12-06T08:29:10.201Z,-0.70
2022-12-06T08:31:40.935Z,-0.70
2022-12-06T08:34:08.637Z,-0.70
2022-12-06T08:36:39.399Z,-0.70
2022-12-06T08:39:10.288Z,-0.60
2022-12-06T08:41:57.959Z,-0.60
2022-12-06T08:44:28.386Z,-0.60
2022-12-06T08:46:56.776Z,-0.60
2022-12-06T08:49:25.294Z,-0.60
2022-12-06T08:51:54.322Z,-0.50
2022-12-06T08:54:25.051Z,-0.50
2022-12-06T08:56:54.027Z,-0.50
2022-12-06T08:59:21.904Z,-0.50
2022-12-06T09:01:49.577Z,-0.50
2022-12-06T09:04:17.650Z,-0.40
2022-12-06T09:06:46.254Z,-0.40
2022-12-06T09:09:17.225Z,-0.40
2022-12-06T09:11:46.435Z,-0.30
2022-12-06T09:14:21.608Z,-0.30
2022-12-06T09:16:51.949Z,-0.30
2022-12-06T09:19:20.324Z,-0.30
2022-12-06T09:21:47.932Z,-0.30
2022-12-06T09:24:17.879Z,-0.20
2022-12-06T09:26:47.232Z,-0.20
2022-12-06T09:29:16.267Z,-0.20
2022-12-06T09:31:43.878Z,-0.10
2022-12-06T09:34:13.071Z,0.00
2022-12-06T09:36:51.405Z,0.00
2022-12-06T09:39:27.286Z,0.10
2022-12-06T09:42:07.412Z,0.00
2022-12-06T09:44:48.665Z,0.10
2022-12-06T09:47:27.563Z,0.10
2022-12-06T09:50:17.583Z,0.20
2022-12-06T09:53:11.219Z,0.20
2022-12-06T09:55:45.205Z,0.30
2022-12-06T09:59:06.129Z,0.30
2022-12-06T10:02:02.542Z,0.40
2022-12-06T10:04:53.517Z,0.50
2022-12-06T10:07:51.574Z,0.60
2022-12-06T10:10:26.692Z,0.80
2022-12-06T10:13:18.286Z,0.90
2022-12-06T10:16:21.533Z,0.90
2022-12-06T10:19:01.070Z,1.00
2022-12-06T10:21:38.456Z,1.00
2022-12-06T10:24:18.880Z,1.00
2022-12-06T10:26:57.969Z,1.10
2022-12-06T10:29:58.681Z,1.10
2022-12-06T10:32:50.977Z,1.20
2022-12-06T10:35:38.499Z,1.20
2022-12-06T10:38:30.272Z,1.30
2022-12-06T10:41:23.827Z,1.50
2022-12-06T10:44:19.967Z,1.60
2022-12-06T10:47:04.209Z,1.70
2022-12-06T10:49:39.556Z,1.80
2022-12-06T10:52:40.607Z,1.90
2022-12-06T10:55:11.983Z,2.00
2022-12-06T10:57:52.765Z,2.00
2022-12-06T11:00:28.572Z,2.00
2022-12-06T11:03:05.794Z,2.10
2022-12-06T11:05:44.260Z,2.10
2022-12-06T11:08:39.803Z,2.20
2022-12-06T11:11:33.192Z,2.40
2022-12-06T11:14:05.308Z,2.60
2022-12-06T11:16:43.847Z,2.80
2022-12-06T11:19:31.340Z,2.80
2022-12-06T11:22:39.891Z,2.90
2022-12-06T11:25:09.249Z,2.90
2022-12-06T11:27:45.052Z,3.00
2022-12-06T11:30:20.260Z,3.00
2022-12-06T11:32:52.713Z,3.00
2022-12-06T11:35:25.353Z,3.00
2022-12-06T11:38:06.774Z,3.00
2022-12-06T11:40:41.966Z,3.00
2022-12-06T11:43:18.138Z,3.00
2022-12-06T11:45:47.954Z,3.00
2022-12-06T11:48:18.704Z,2.90
2022-12-06T11:50:50.820Z,2.90
2022-12-06T11:53:36.938Z,3.00
2022-12-06T11:56:28.775Z,3.00
2022-12-06T11:59:11.953Z,3.10
2022-12-06T12:01:46.911Z,3.10
2022-12-06T12:04:38.099Z,3.10
2022-12-06T12:07:08.645Z,3.10
2022-12-06T12:09:46.706Z,3.00
2022-12-06T12:13:02.850Z,2.90
2022-12-06T12:15:32.784Z,2.80
2022-12-06T12:18:03.378Z,2.70
2022-12-06T12:20:39.397Z,2.60
2022-12-06T12:23:23.502Z,2.60
2022-12-06T12:26:13.634Z,2.50
2022-12-06T12:28:44.703Z,2.40
2022-12-06T12:31:23.478Z,2.30
2022-12-06T12:34:18.798Z,2.30
2022-12-06T12:36:55.209Z,2.20
2022-12-06T12:39:27.389Z,2.20
2022-12-06T12:41:57.673Z,2.10
2022-12-06T12:44:38.116Z,2.00
2022-12-06T12:47:19.842Z,2.00
2022-12-06T12:50:14.260Z,2.00
2022-12-06T12:52:43.055Z,2.00
2022-12-06T12:55:22.075Z,1.90
2022-12-06T12:57:57.836Z,1.90
2022-12-06T13:00:34.436Z,1.80
2022-12-06T13:03:34.775Z,1.80
2022-12-06T13:06:00.527Z,1.80
2022-12-06T13:08:34.656Z,1.70
2022-12-06T13:11:06.208Z,1.70
2022-12-06T13:13:39.757Z,1.60
2022-12-06T13:16:14.245Z,1.60
2022-12-06T13:18:46.120Z,1.60
2022-12-06T13:21:27.782Z,1.50
2022-12-06T13:24:04.862Z,1.60
2022-12-06T13:26:38.660Z,1.50
2022-12-06T13:29:34.157Z,1.50
2022-12-06T13:32:23.891Z,1.50
2022-12-06T13:34:56.977Z,1.50
2022-12-06T13:37:51.123Z,1.40
2022-12-06T13:40:33.440Z,1.40
2022-12-06T13:43:04.623Z,1.40
2022-12-06T13:45:48.334Z,1.40
2022-12-06T13:48:25.656Z,1.40
2022-12-06T13:50:59.400Z,1.40
2022-12-06T13:53:33.926Z,1.30
2022-12-06T13:56:23.117Z,1.30
2022-12-06T13:58:54.113Z,1.20
2022-12-06T14:01:43.075Z,1.20
2022-12-06T14:07:01.911Z,1.10
2022-12-06T14:09:49.756Z,1.10
2022-12-06T14:12:26.483Z,1.00
2022-12-06T14:15:02.848Z,1.00
2022-12-06T14:20:30.988Z,1.00
2022-12-06T14:22:58.816Z,0.90
2022-12-06T14:25:29.750Z,0.90
2022-12-06T14:28:06.937Z,1.00
2022-12-06T14:30:35.436Z,0.90
2022-12-06T14:33:16.420Z,1.00
2022-12-06T14:35:51.172Z,0.90
2022-12-06T14:38:27.732Z,0.90
2022-12-06T14:41:14.836Z,0.80
2022-12-06T14:43:47.401Z,0.80
2022-12-06T14:46:17.834Z,0.80
2022-12-06T14:49:05.293Z,0.70
2022-12-06T14:51:38.020Z,0.80
2022-12-06T14:54:44.068Z,0.70
2022-12-06T14:57:46.755Z,0.70
2022-12-06T15:00:27.228Z,0.70
2022-12-06T15:03:16.751Z,0.70
2022-12-06T15:05:50.224Z,0.70
2022-12-06T15:08:32.005Z,0.80
2022-12-06T15:11:47.467Z,0.70
2022-12-06T15:14:26.308Z,0.70
2022-12-06T15:17:01.253Z,0.70
2022-12-06T15:19:32.950Z,0.60
2022-12-06T15:22:03.392Z,0.60
2022-12-06T15:24:32.233Z,0.70
2022-12-06T15:27:03.113Z,0.60
2022-12-06T15:29:31.548Z,0.60
2022-12-06T15:31:59.598Z,0.60
2022-12-06T15:34:29.805Z,0.60
2022-12-06T15:37:36.471Z,0.60
2022-12-06T15:39:49.442Z,0.60
2022-12-06T15:42:18.612Z,0.60
2022-12-06T15:44:49.733Z,0.60
2022-12-06T15:47:18.496Z,0.60
2022-12-06T15:49:47.421Z,0.50
2022-12-06T15:52:19.955Z,0.50
2022-12-06T15:54:48.359Z,0.60
2022-12-06T15:57:17.508Z,0.50
2022-12-06T15:59:45.812Z,0.50
2022-12-06T16:02:15.962Z,0.50
2022-12-06T16:04:45.773Z,0.50
2022-12-06T16:07:18.847Z,0.40
2022-12-06T16:09:48.363Z,0.40
2022-12-06T16:12:17.421Z,0.40
2022-12-06T16:14:45.917Z,0.40
2022-12-06T16:17:15.083Z,0.40
2022-12-06T16:20:01.471Z,0.40
2022-12-06T16:22:47.334Z,0.40
2022-12-06T16:25:15.026Z,0.40
2022-12-06T16:27:42.601Z,0.40
2022-12-06T16:30:11.184Z,0.40
2022-12-06T16:32:39.817Z,0.30
2022-12-06T16:35:08.708Z,0.30
2022-12-06T16:37:37.284Z,0.30
2022-12-06T16:40:06.439Z,0.30
2022-12-06T16:42:33.364Z,0.30
2022-12-06T16:45:03.389Z,0.30
2022-12-06T16:49:58.388Z,0.30
2022-12-06T16:52:26.685Z,0.30
2022-12-06T16:54:54.988Z,0.30
2022-12-06T16:57:25.356Z,0.30
2022-12-06T16:59:54.078Z,0.30
2022-12-06T17:02:31.452Z,0.20
2022-12-06T17:05:03.149Z,0.20
2022-12-06T17:07:32.532Z,0.20
2022-12-06T17:10:02.822Z,0.30
2022-12-06T17:12:31.720Z,0.20
2022-12-06T17:15:01.338Z,0.20
2022-12-06T17:17:30.909Z,0.30
2022-12-06T17:19:58.652Z,0.30
2022-12-06T17:22:26.318Z,0.20
2022-12-06T17:24:54.634Z,0.20
2022-12-06T17:27:23.010Z,0.20
2022-12-06T17:29:52.420Z,0.20
2022-12-06T17:32:20.891Z,0.30
2022-12-06T17:34:48.525Z,0.20
2022-12-06T17:37:16.844Z,0.20
2022-12-06T17:39:44.379Z,0.20
2022-12-06T17:42:31.664Z,0.20
2022-12-06T17:45:00.380Z,0.20
2022-12-06T17:47:29.142Z,0.20
2022-12-06T17:49:56.593Z,0.20
2022-12-06T17:52:24.796Z,0.20
2022-12-06T17:54:52.530Z,0.20
2022-12-06T17:57:20.895Z,0.20
2022-12-06T17:59:48.868Z,0.20
2022-12-06T18:02:20.242Z,0.20
2022-12-06T18:04:48.722Z,0.20
2022-12-06T18:07:17.817Z,0.20
2022-12-06T18:09:48.561Z,0.30
2022-12-06T18:12:18.069Z,0.20
2022-12-06T18:14:47.088Z,0.30
2022-12-06T18:17:17.784Z,0.30
2022-12-06T18:19:47.252Z,0.30
2022-12-06T18:22:15.595Z,0.30
2022-12-06T18:24:45.572Z,0.30
2022-12-06T18:27:13.163Z,0.30
2022-12-06T18:29:40.848Z,0.30
2022-12-06T18:32:08.438Z,0.40
2022-12-06T18:34:37.674Z,0.40
2022-12-06T18:37:05.252Z,0.40
2022-12-06T18:39:32.945Z,0.30
2022-12-06T18:42:02.287Z,0.40
2022-12-06T18:44:30.087Z,0.40
2022-12-06T18:46:58.396Z,0.30
2022-12-06T18:49:27.417Z,0.30
2022-12-06T18:51:55.681Z,0.30
2022-12-06T18:54:26.350Z,0.30
2022-12-06T18:56:53.969Z,0.30
2022-12-06T18:59:27.407Z,0.30
2022-12-06T19:01:56.586Z,0.30
2022-12-06T19:04:26.748Z,0.30
2022-12-06T19:06:54.519Z,0.30
2022-12-06T19:09:23.270Z,0.30
2022-12-06T19:11:51.515Z,0.30
2022-12-06T19:14:19.886Z,0.30
2022-12-06T19:16:51.428Z,0.30
2022-12-06T19:19:25.147Z,0.30
2022-12-06T19:21:55.000Z,0.30
2022-12-06T19:24:25.064Z,0.30
2022-12-06T19:26:54.045Z,0.30
2022-12-06T19:29:22.655Z,0.40
2022-12-06T19:31:52.155Z,0.40
2022-12-06T19:34:26.015Z,0.30
2022-12-06T19:36:57.166Z,0.30
2022-12-06T19:39:26.196Z,0.30
2022-12-06T19:42:13.337Z,0.30
2022-12-06T19:44:41.961Z,0.30
2022-12-06T19:47:11.612Z,0.30
2022-12-06T19:49:40.038Z,0.30
2022-12-06T19:52:08.640Z,0.30
2022-12-06T19:54:40.060Z,0.40
2022-12-06T19:57:09.623Z,0.40
2022-12-06T19:59:39.369Z,0.40
2022-12-06T20:02:08.062Z,0.40
2022-12-06T20:04:39.793Z,0.40
2022-12-06T20:07:08.815Z,0.40
2022-12-06T20:09:37.329Z,0.40
2022-12-06T20:12:06.017Z,0.40
2022-12-06T20:14:48.159Z,0.40
2022-12-06T20:17:21.958Z,0.40
2022-12-06T20:19:51.722Z,0.30
2022-12-06T20:22:22.737Z,0.40
2022-12-06T20:24:52.282Z,0.30
2022-12-06T20:27:41.657Z,0.30
2022-12-06T20:30:09.853Z,0.30
2022-12-06T20:32:38.248Z,0.40
2022-12-06T20:35:07.560Z,0.30
2022-12-06T20:37:37.737Z,0.30
2022-12-06T20:40:08.804Z,0.30
2022-12-06T20:42:37.111Z,0.30
2022-12-06T20:45:05.868Z,0.30
2022-12-06T20:47:34.090Z,0.30
2022-12-06T20:50:03.158Z,0.30
2022-12-06T20:52:33.275Z,0.30
2022-12-06T20:55:00.966Z,0.20
2022-12-06T20:57:29.290Z,0.30
2022-12-06T21:00:02.089Z,0.30
2022-12-06T21:02:33.295Z,0.30
2022-12-06T21:05:00.979Z,0.30
2022-12-06T21:07:29.772Z,0.20
2022-12-06T21:09:58.086Z,0.30
2022-12-06T21:12:26.592Z,0.30
2022-12-06T21:14:55.017Z,0.30
2022-12-06T21:17:22.648Z,0.30
2022-12-06T21:19:52.559Z,0.20
2022-12-06T21:22:20.908Z,0.20
2022-12-06T21:24:48.598Z,0.20
2022-12-06T21:27:16.893Z,0.20
2022-12-06T21:29:47.828Z,0.10
2022-12-06T21:32:15.469Z,0.10
2022-12-06T21:34:46.335Z,0.10
2022-12-06T21:37:15.104Z,0.10
2022-12-06T21:39:46.619Z,0.10
2022-12-06T21:42:15.733Z,0.10
2022-12-06T21:44:43.367Z,0.10
2022-12-06T21:47:11.843Z,0.10
2022-12-06T21:49:38.836Z,0.10
2022-12-06T21:52:09.367Z,0.10
2022-12-06T21:54:37.231Z,0.10
2022-12-06T21:57:05.006Z,0.10
2022-12-06T21:59:34.364Z,0.10
2022-12-06T22:02:01.364Z,0.00
2022-12-06T22:04:29.707Z,0.10
2022-12-06T22:06:58.713Z,0.10
2022-12-06T22:09:26.968Z,0.00
2022-12-06T22:11:54.871Z,0.00
2022-12-06T22:14:22.487Z,0.00
2022-12-06T22:16:51.309Z,0.00
2022-12-06T22:19:18.958Z,0.00
2022-12-06T22:21:47.828Z,0.00
2022-12-06T22:24:15.497Z,-0.10
2022-12-06T22:26:43.754Z,0.00
2022-12-06T22:29:14.183Z,-0.10
2022-12-06T22:31:42.947Z,-0.10
2022-12-06T22:34:10.088Z,-0.20
2022-12-06T22:36:37.705Z,-0.20
2022-12-06T22:39:05.979Z,-0.20
2022-12-06T22:41:34.183Z,-0.20
2022-12-06T22:44:04.627Z,-0.20
2022-12-06T22:46:33.936Z,-0.20
2022-12-06T22:49:02.354Z,-0.20
2022-12-06T22:51:31.768Z,-0.20
2022-12-06T22:54:05.437Z,-0.20
2022-12-06T22:56:33.984Z,-0.30
2022-12-06T22:59:03.620Z,-0.30
2022-12-06T23:01:34.227Z,-0.30
2022-12-06T23:04:06.162Z,-0.30
2022-12-06T23:06:36.764Z,-0.30
2022-12-06T23:09:08.055Z,-0.30
2022-12-06T23:11:36.745Z,-0.30
2022-12-06T23:14:04.528Z,-0.30
2022-12-06T23:16:32.782Z,-0.40
2022-12-06T23:19:03.549Z,-0.30
2022-12-06T23:21:35.108Z,-0.40
2022-12-06T23:24:07.085Z,-0.40
2022-12-06T23:26:44.648Z,-0.40
2022-12-06T23:29:13.000Z,-0.40
2022-12-06T23:31:43.696Z,-0.40
2022-12-06T23:34:17.010Z,-0.50
2022-12-06T23:36:46.489Z,-0.40
2022-12-06T23:39:15.348Z,-0.40
2022-12-06T23:41:42.220Z,-0.40
2022-12-06T23:44:12.904Z,-0.40
2022-12-06T23:46:42.965Z,-0.40
2022-12-06T23:49:17.382Z,-0.50
2022-12-06T23:51:47.182Z,-0.50
2022-12-06T23:54:17.371Z,-0.50
2022-12-06T23:56:45.509Z,-0.50
2022-12-06T23:59:14.761Z,-0.60
